createdAt,value
2017-05-04T00:02:03.154Z,46.3
2017-05-04T00:07:03.597Z,46.4
2017-05-04T00:12:03.412Z,46.3
2017-05-04T00:17:03.189Z,46.3
2017-05-04T00:22:03.623Z,46.3
2017-05-04T00:27:03.379Z,46.3
2017-05-04T00:32:03.314Z,46.4
2017-05-04T00:37:03.877Z,46.3
2017-05-04T00:42:03.695Z,46.3
2017-05-04T00:47:03.632Z,46.2
2017-05-04T00:52:03.349Z,46.0
2017-05-04T00:57:03.151Z,46.0
2017-05-04T01:02:03.202Z,46.0
2017-05-04T01:07:03.947Z,46.1
2017-05-04T01:12:03.646Z,45.9
2017-05-04T01:17:04.261Z,45.8
2017-05-04T01:22:03.442Z,46.0
2017-05-04T01:27:03.194Z,46.0
2017-05-04T01:32:03.918Z,46.0
2017-05-04T01:37:03.835Z,45.8
2017-05-04T01:42:03.669Z,45.9
2017-05-04T01:47:03.516Z,45.8
2017-05-04T01:52:03.435Z,45.7
2017-05-04T01:57:03.237Z,45.7
2017-05-04T02:02:03.219Z,45.9
2017-05-04T02:07:03.886Z,45.8
2017-05-04T02:12:03.777Z,45.8
2017-05-04T02:17:03.575Z,45.8
2017-05-04T02:22:03.546Z,45.7
2017-05-04T02:27:03.528Z,45.8
2017-05-04T02:32:03.454Z,45.8
2017-05-04T02:37:03.303Z,45.8
2017-05-04T02:42:03.459Z,45.7
2017-05-04T02:47:03.795Z,45.8
2017-05-04T02:52:03.169Z,45.8
2017-05-04T02:57:03.348Z,45.8
2017-05-04T03:02:03.819Z,45.7
2017-05-04T03:07:03.181Z,45.6
2017-05-04T03:12:03.513Z,45.7
2017-05-04T03:17:04.760Z,45.9
2017-05-04T03:22:03.156Z,45.7
2017-05-04T03:27:03.447Z,45.7
2017-05-04T03:32:17.020Z,45.5
2017-05-04T03:37:03.357Z,45.7
2017-05-04T03:42:03.793Z,45.7
2017-05-04T03:47:24.041Z,45.9
2017-05-04T03:52:03.501Z,45.8
2017-05-04T03:57:03.710Z,45.8
2017-05-04T04:02:25.121Z,46.0
2017-05-04T04:07:03.436Z,46.0
2017-05-04T04:12:03.530Z,46.0
2017-05-04T04:17:32.279Z,45.8
2017-05-04T04:22:03.609Z,45.8
2017-05-04T04:27:04.040Z,46.0
2017-05-04T04:32:23.758Z,45.9
2017-05-04T04:37:03.694Z,45.8
2017-05-04T04:42:03.125Z,45.8
2017-05-04T04:52:03.875Z,45.7
2017-05-04T04:57:03.181Z,45.9
2017-05-04T05:02:27.903Z,45.9
2017-05-04T05:07:03.567Z,45.8
2017-05-04T05:12:03.982Z,45.7
2017-05-04T05:17:32.323Z,45.8
2017-05-04T05:22:03.265Z,45.7
2017-05-04T05:27:03.704Z,45.7
2017-05-04T05:32:24.227Z,45.6
2017-05-04T05:37:03.885Z,45.5
2017-05-04T05:42:03.234Z,45.5
2017-05-04T05:47:24.070Z,45.4
2017-05-04T05:52:03.761Z,45.3
2017-05-04T05:57:03.186Z,45.3
2017-05-04T06:07:03.161Z,45.3
2017-05-04T06:12:03.703Z,45.3
2017-05-04T06:17:31.612Z,45.2
2017-05-04T06:22:03.876Z,45.2
2017-05-04T06:27:03.222Z,44.9
2017-05-04T06:32:20.676Z,44.6
2017-05-04T06:37:03.749Z,44.6
2017-05-04T06:42:03.082Z,45.0
2017-05-04T06:47:28.293Z,44.9
2017-05-04T06:52:03.186Z,44.9
2017-05-04T06:57:03.562Z,45.1
2017-05-04T07:02:24.353Z,45.2
2017-05-04T07:07:03.847Z,45.6
2017-05-04T07:12:03.509Z,45.3
2017-05-04T07:17:28.707Z,45.3
2017-05-04T07:22:03.859Z,45.3
2017-05-04T07:27:03.239Z,45.3
2017-05-04T07:37:03.755Z,44.8
2017-05-04T07:42:03.162Z,45.1
2017-05-04T07:47:28.769Z,45.1
2017-05-04T07:52:03.548Z,45.5
2017-05-04T07:57:03.839Z,45.5
2017-05-04T08:02:22.656Z,45.8
2017-05-04T08:07:03.559Z,45.9
2017-05-04T08:12:03.861Z,46.0
2017-05-04T08:17:23.508Z,46.0
2017-05-04T08:22:03.756Z,45.9
2017-05-04T08:27:03.167Z,45.8
2017-05-04T08:32:27.412Z,45.2
2017-05-04T08:37:03.585Z,45.2
2017-05-04T08:42:03.931Z,45.0
2017-05-04T08:47:28.689Z,45.0
2017-05-04T08:52:03.029Z,45.3
2017-05-04T08:57:03.498Z,45.2
2017-05-04T09:02:28.365Z,45.6
2017-05-04T09:07:03.588Z,45.5
2017-05-04T09:12:03.283Z,45.5
2017-05-04T09:17:28.721Z,46.0
2017-05-04T09:22:03.533Z,46.0
2017-05-04T09:27:03.870Z,45.7
2017-05-04T09:32:22.919Z,45.6
2017-05-04T09:37:03.412Z,45.2
2017-05-04T09:42:03.762Z,45.3
2017-05-04T09:52:03.604Z,45.1
2017-05-04T09:57:03.011Z,45.6
2017-05-04T10:02:22.889Z,46.2
2017-05-04T10:07:03.747Z,46.2
2017-05-04T10:12:03.342Z,46.1
2017-05-04T10:17:27.012Z,46.5
2017-05-04T10:22:03.631Z,46.7
2017-05-04T10:27:03.924Z,46.7
2017-05-04T10:32:27.896Z,47.2
2017-05-04T10:37:03.700Z,48.2
2017-05-04T10:42:03.025Z,48.9
2017-05-04T10:47:24.597Z,48.9
2017-05-04T10:52:03.680Z,48.9
2017-05-04T10:57:03.118Z,50.3
2017-05-04T11:02:23.844Z,51.7
2017-05-04T11:07:03.872Z,51.3
2017-05-04T11:12:03.469Z,51.4
2017-05-04T11:17:28.729Z,51.0
2017-05-04T11:22:03.407Z,50.6
2017-05-04T11:27:03.763Z,50.1
2017-05-04T11:32:25.225Z,49.4
2017-05-04T11:37:03.958Z,49.2
2017-05-04T11:42:03.360Z,47.8
2017-05-04T11:47:25.094Z,47.7
2017-05-04T11:52:03.355Z,46.7
2017-05-04T11:57:03.651Z,45.7
2017-05-04T12:02:24.702Z,45.1
2017-05-04T12:07:03.353Z,44.9
2017-05-04T12:12:03.773Z,44.8
2017-05-04T12:17:26.730Z,45.5
2017-05-04T12:22:03.603Z,46.1
2017-05-04T12:27:03.890Z,46.0
2017-05-04T12:32:28.004Z,46.0
2017-05-04T12:37:03.913Z,46.1
2017-05-04T12:42:03.332Z,46.1
2017-05-04T12:47:24.098Z,46.5
2017-05-04T12:52:03.721Z,46.6
2017-05-04T12:57:03.129Z,46.6
2017-05-04T13:02:28.210Z,46.7
2017-05-04T13:07:03.677Z,46.4
2017-05-04T13:12:03.204Z,46.6
2017-05-04T13:17:23.986Z,46.5
2017-05-04T13:22:03.325Z,46.9
2017-05-04T13:27:03.773Z,46.9
2017-05-04T13:32:23.234Z,47.7
2017-05-04T13:37:03.452Z,48.2
2017-05-04T13:42:03.810Z,48.2
2017-05-04T13:52:03.756Z,49.4
2017-05-04T13:57:03.095Z,49.4
2017-05-04T14:02:26.724Z,49.5
2017-05-04T14:07:03.566Z,48.8
2017-05-04T14:12:03.090Z,48.8
2017-05-04T14:17:21.883Z,48.3
2017-05-04T14:22:03.916Z,48.3
2017-05-04T14:27:03.202Z,48.2
2017-05-04T14:32:23.067Z,48.1
2017-05-04T14:37:03.101Z,48.3
2017-05-04T14:42:03.456Z,48.3
2017-05-04T14:47:29.116Z,48.0
2017-05-04T14:52:03.591Z,48.0
2017-05-04T14:57:03.911Z,48.1
2017-05-04T15:02:23.410Z,48.1
2017-05-04T15:07:03.590Z,46.3
2017-05-04T15:12:04.009Z,46.2
2017-05-04T15:17:29.511Z,42.1
2017-05-04T15:22:03.649Z,38.5
2017-05-04T15:27:03.941Z,37.9
2017-05-04T15:32:21.060Z,36.0
2017-05-04T15:37:03.485Z,36.0
2017-05-04T15:42:03.761Z,32.7
2017-05-04T15:47:24.016Z,35.1
2017-05-04T15:52:03.113Z,37.6
2017-05-04T15:57:03.923Z,37.6
2017-05-04T16:02:21.786Z,39.0
2017-05-04T16:12:08.119Z,38.4
2017-05-04T16:17:23.180Z,34.6
2017-05-04T16:22:03.591Z,34.5
2017-05-04T16:27:03.852Z,32.2
2017-05-04T16:32:21.086Z,30.9
2017-05-04T16:37:03.739Z,30.9
2017-05-04T16:42:03.081Z,32.2
2017-05-04T16:47:20.845Z,33.4
2017-05-04T16:52:03.737Z,33.3
2017-05-04T16:57:03.060Z,33.2
2017-05-04T17:07:03.191Z,32.5
2017-05-04T17:12:03.650Z,33.2
2017-05-04T17:17:20.077Z,33.8
2017-05-04T17:22:03.103Z,36.2
2017-05-04T17:27:03.392Z,36.2
2017-05-04T17:32:18.259Z,35.7
2017-05-04T17:37:03.308Z,36.7
2017-05-04T17:42:03.677Z,40.0
2017-05-04T17:47:18.585Z,42.6
2017-05-04T17:52:03.053Z,42.9
2017-05-04T17:57:03.494Z,42.9
2017-05-04T18:02:23.598Z,45.9
2017-05-04T18:07:03.778Z,47.0
2017-05-04T18:12:03.198Z,48.1
2017-05-04T18:17:25.177Z,48.3
2017-05-04T18:22:03.129Z,48.3
2017-05-04T18:27:03.535Z,48.5
2017-05-04T18:32:25.022Z,48.7
2017-05-04T18:37:03.638Z,48.7
2017-05-04T18:42:03.121Z,49.0
2017-05-04T18:47:26.493Z,49.0
2017-05-04T18:52:03.475Z,49.0
2017-05-04T18:57:03.919Z,48.9
2017-05-04T19:02:18.463Z,48.5
2017-05-04T19:07:03.438Z,48.3
2017-05-04T19:12:03.988Z,48.1
2017-05-04T19:17:12.389Z,48.0
2017-05-04T19:22:03.455Z,47.8
2017-05-04T19:27:03.779Z,47.6
2017-05-04T19:32:03.141Z,47.5
2017-05-04T19:37:03.399Z,47.4
2017-05-04T19:42:03.691Z,47.4
2017-05-04T19:47:04.240Z,47.4
2017-05-04T19:52:03.414Z,47.7
2017-05-04T19:57:03.665Z,47.6
2017-05-04T20:02:04.066Z,47.7
2017-05-04T20:07:03.467Z,47.7
2017-05-04T20:12:03.756Z,47.6
2017-05-04T20:17:04.076Z,47.7
2017-05-04T20:22:03.501Z,47.8
2017-05-04T20:27:03.715Z,47.8
2017-05-04T20:32:04.607Z,48.0
2017-05-04T20:37:03.653Z,48.0
2017-05-04T20:42:03.567Z,48.0
2017-05-04T20:47:03.923Z,48.1
2017-05-04T20:52:03.269Z,48.2
2017-05-04T20:57:03.446Z,48.4
2017-05-04T21:02:03.748Z,48.4
2017-05-04T21:07:03.341Z,48.4
2017-05-04T21:12:03.677Z,48.3
2017-05-04T21:17:04.006Z,48.3
2017-05-04T21:22:03.352Z,48.3
2017-05-04T21:27:03.617Z,48.4
2017-05-04T21:32:03.853Z,48.2
2017-05-04T21:37:03.253Z,47.9
2017-05-04T21:42:03.413Z,47.9
2017-05-04T21:47:03.694Z,47.9
2017-05-04T21:52:03.073Z,47.6
2017-05-04T21:57:03.385Z,47.5
2017-05-04T22:02:03.779Z,47.4
2017-05-04T22:07:03.480Z,47.4
2017-05-04T22:12:03.613Z,47.4
2017-05-04T22:22:03.832Z,47.5
2017-05-04T22:27:03.318Z,47.9
2017-05-04T22:32:03.796Z,47.7
2017-05-04T22:37:03.365Z,47.5
2017-05-04T22:42:03.949Z,47.4
2017-05-04T22:47:03.623Z,47.5
2017-05-04T22:52:03.394Z,47.5
2017-05-04T22:57:03.791Z,47.6
2017-05-04T23:02:03.436Z,47.4
2017-05-04T23:07:03.546Z,47.3
2017-05-04T23:12:03.281Z,47.4
2017-05-04T23:17:03.225Z,47.4
2017-05-04T23:22:03.733Z,47.4
2017-05-04T23:27:03.487Z,47.4
2017-05-04T23:32:03.507Z,47.5
2017-05-04T23:37:03.503Z,47.5
2017-05-04T23:42:03.486Z,47.5
2017-05-04T23:47:03.330Z,47.5
2017-05-04T23:52:03.389Z,47.5
2017-05-04T23:57:03.470Z,47.8
